Time;durP1;ratioP1;P1;durP2;ratioP2;P2;SDS_P1;SDS_P2;PMS_P1;PMS_P2;Temp;Humidity;BMP_temperature;BMP_pressure;BME280_temperature;BME280_humidity;BME280_pressure;Samples;Min_cycle;Max_cycle;Signal;HPM_P1;HPM_P2
2023/06/05 00:01:51;;;;;;;4.75;3.65;;;;;;;18.83;100.00;100852.06;5054806;28;20056;-92
2023/06/05 00:04:18;;;;;;;5.55;3.97;;;;;;;18.63;100.00;100859.13;5061418;28;20041;-92
2023/06/05 00:06:46;;;;;;;4.53;3.80;;;;;;;18.39;100.00;100866.78;5075613;28;20044;-92
2023/06/05 00:09:14;;;;;;;5.47;3.50;;;;;;;18.33;100.00;100862.53;5075521;28;20048;-93
2023/06/05 00:11:42;;;;;;;6.32;3.60;;;;;;;18.37;100.00;100857.16;5074733;28;20487;-93
2023/06/05 00:14:10;;;;;;;4.40;3.70;;;;;;;18.29;100.00;100850.50;5074582;28;20052;-94
2023/06/05 00:16:38;;;;;;;5.53;3.83;;;;;;;18.16;100.00;100846.75;5076516;28;20041;-93
2023/06/05 00:19:07;;;;;;;5.25;4.15;;;;;;;18.09;100.00;100850.00;5075342;28;20056;-95
2023/06/05 00:21:36;;;;;;;6.45;4.32;;;;;;;18.18;100.00;100852.75;5057771;28;20049;-95
2023/06/05 00:24:04;;;;;;;5.50;4.65;;;;;;;18.11;100.00;100849.69;5074249;28;20309;-92
2023/06/05 00:26:31;;;;;;;5.75;4.28;;;;;;;18.17;100.00;100840.06;5075512;28;20040;-93
2023/06/05 00:28:59;;;;;;;5.88;4.88;;;;;;;18.04;100.00;100841.00;5075225;28;20051;-95
2023/06/05 00:31:27;;;;;;;6.10;4.75;;;;;;;18.05;100.00;100848.19;5057881;28;20394;-95
2023/06/05 00:33:55;;;;;;;7.45;4.88;;;;;;;18.24;100.00;100850.66;5063990;28;20045;-95
2023/06/05 00:36:24;;;;;;;5.03;4.53;;;;;;;18.40;100.00;100853.75;5054602;28;20045;-96
2023/06/05 00:38:52;;;;;;;6.10;5.32;;;;;;;18.49;100.00;100850.97;5056176;28;20053;-95
2023/06/05 00:41:23;;;;;;;5.43;4.88;;;;;;;18.43;100.00;100853.09;5038976;28;20052;-96
2023/06/05 00:43:50;;;;;;;6.90;5.75;;;;;;;18.21;100.00;100852.13;5055341;28;20484;-95
2023/06/05 00:46:19;;;;;;;7.68;5.38;;;;;;;18.44;100.00;100857.50;5036651;28;20049;-96
2023/06/05 00:48:50;;;;;;;7.55;5.70;;;;;;;18.25;100.00;100855.88;5054530;28;20080;-96
2023/06/05 00:51:18;;;;;;;8.27;5.90;;;;;;;18.48;100.00;100854.91;5055782;28;20053;-96
2023/06/05 00:53:47;;;;;;;6.35;5.38;;;;;;;18.46;100.00;100857.97;5074845;28;20059;-94
2023/06/05 00:56:16;;;;;;;8.98;5.55;;;;;;;18.33;100.00;100858.97;5051180;28;20045;-95
2023/06/05 00:58:45;;;;;;;7.05;5.80;;;;;;;18.24;100.00;100854.22;5058339;28;20052;-94
2023/06/05 01:01:14;;;;;;;7.80;5.80;;;;;;;18.10;100.00;100850.81;5074552;28;20040;-95
2023/06/05 01:03:44;;;;;;;6.63;5.68;;;;;;;17.93;100.00;100851.59;5057832;28;20044;-93
2023/06/05 01:06:16;;;;;;;11.38;6.82;;;;;;;18.09;100.00;100851.97;5073139;28;20048;-94
2023/06/05 01:08:45;;;;;;;9.00;7.30;;;;;;;17.83;100.00;100852.69;5038117;28;20059;-94
2023/06/05 01:11:23;;;;;;;10.70;7.97;;;;;;;17.96;100.00;100856.47;5054991;28;20037;-94
2023/06/05 01:14:08;;;;;;;9.85;7.30;;;;;;;17.85;100.00;100853.22;5056279;28;20388;-94
2023/06/05 01:16:37;;;;;;;;;;;;;;;17.89;100.00;100854.16;5074213;28;20056;-95
2023/06/05 01:19:06;;;;;;;11.52;7.75;;;;;;;18.05;100.00;100850.94;5075186;28;20382;-95
2023/06/05 01:21:35;;;;;;;12.05;8.40;;;;;;;18.22;100.00;100856.53;5066514;28;20049;-94
2023/06/05 01:24:05;;;;;;;9.93;7.10;;;;;;;18.26;100.00;100854.75;5054619;28;20044;-95
2023/06/05 01:26:42;;;;;;;10.77;6.50;;;;;;;18.18;100.00;100851.97;5037153;28;20044;-93
2023/06/05 01:29:15;;;;;;;9.23;7.00;;;;;;;18.20;100.00;100850.50;5037656;28;20403;-93
2023/06/05 01:31:45;;;;;;;7.10;6.25;;;;;;;18.27;100.00;100852.75;5055007;28;20052;-93
2023/06/05 01:34:19;;;;;;;10.00;6.38;;;;;;;18.36;100.00;100852.75;5054195;28;20106;-92
2023/06/05 01:36:48;;;;;;;9.52;6.68;;;;;;;18.25;100.00;100850.34;5033810;28;20061;-88
2023/06/05 01:39:18;;;;;;;9.25;6.95;;;;;;;18.39;100.00;100844.63;5044439;28;20051;-88
2023/06/05 01:41:48;;;;;;;10.77;6.75;;;;;;;18.53;100.00;100844.44;5053431;28;20049;-89
2023/06/05 01:44:17;;;;;;;11.60;6.38;;;;;;;18.59;100.00;100838.72;5054687;28;20067;-89
2023/06/05 01:46:47;;;;;;;8.30;6.57;;;;;;;18.83;100.00;100834.59;5054810;28;20045;-89
2023/06/05 01:49:19;;;;;;;8.73;5.53;;;;;;;18.58;100.00;100826.03;5069562;28;20052;-89
2023/06/05 01:51:46;;;;;;;7.30;5.20;;;;;;;18.69;100.00;100826.47;5070477;28;20075;-89
2023/06/05 01:54:15;;;;;;;7.80;5.85;;;;;;;18.71;100.00;100827.78;5053407;28;20049;-89
2023/06/05 01:56:43;;;;;;;7.90;5.70;;;;;;;18.67;100.00;100824.03;5071548;28;20056;-89
2023/06/05 01:59:12;;;;;;;8.70;5.75;;;;;;;18.79;100.00;100829.75;5054025;28;20048;-90
2023/06/05 02:01:40;;;;;;;6.30;5.47;;;;;;;18.75;100.00;100826.00;5053961;28;20483;-90
2023/06/05 02:04:08;;;;;;;6.82;5.57;;;;;;;18.75;100.00;100826.00;5053523;28;20059;-89
2023/06/05 02:06:41;;;;;;;8.05;5.38;;;;;;;18.56;100.00;100829.13;5071381;28;20513;-90
2023/06/05 02:09:12;;;;;;;8.10;6.00;;;;;;;18.71;100.00;100822.25;5072854;28;20056;-89
2023/06/05 02:11:42;;;;;;;8.18;6.00;;;;;;;18.75;100.00;100823.22;5039998;28;20064;-88
2023/06/05 02:14:12;;;;;;;5.60;5.05;;;;;;;18.75;100.00;100826.00;5018551;28;20067;-89
2023/06/05 02:16:43;;;;;;;7.03;4.90;;;;;;;18.73;100.00;100828.25;5028364;28;20051;-90
2023/06/05 02:19:12;;;;;;;7.68;5.97;;;;;;;18.69;100.00;100821.75;5037904;28;20495;-89
2023/06/05 02:21:39;;;;;;;6.78;5.38;;;;;;;18.73;100.00;100827.47;5053156;28;20045;-88
2023/06/05 02:24:07;;;;;;;5.85;5.00;;;;;;;18.76;100.00;100832.31;5054563;28;20052;-89
2023/06/05 02:26:36;;;;;;;8.93;5.40;;;;;;;18.72;100.00;100831.38;5054525;28;20048;-89
2023/06/05 02:29:03;;;;;;;6.43;4.90;;;;;;;18.74;100.00;100835.47;5020868;28;20047;-88
2023/06/05 02:31:31;;;;;;;6.65;5.22;;;;;;;18.48;100.00;100830.75;5032661;28;20048;-88
2023/06/05 02:34:00;;;;;;;7.22;5.18;;;;;;;18.61;100.00;100831.72;5050396;28;20064;-87
2023/06/05 02:36:32;;;;;;;7.55;6.07;;;;;;;18.54;100.00;100836.97;5051663;28;20060;-88
2023/06/05 02:39:04;;;;;;;8.00;5.03;;;;;;;18.61;100.00;100833.66;5024153;28;20047;-88
2023/06/05 02:41:32;;;;;;;6.47;5.22;;;;;;;18.70;100.00;100828.09;5040028;28;20053;-88
2023/06/05 02:44:04;;;;;;;8.32;5.75;;;;;;;18.67;100.00;100832.34;5017446;28;20051;-88
2023/06/05 02:46:32;;;;;;;8.45;5.93;;;;;;;18.60;100.00;100837.59;5033728;28;20053;-88
2023/06/05 02:49:00;;;;;;;8.80;6.10;;;;;;;18.61;100.00;100842.81;5001286;28;20049;-89
2023/06/05 02:51:28;;;;;;;8.13;5.50;;;;;;;18.58;100.00;100839.88;5042879;28;20051;-89
2023/06/05 02:53:57;;;;;;;5.95;5.22;;;;;;;18.58;100.00;100831.56;5040227;28;20176;-88
2023/06/05 02:56:28;;;;;;;7.18;5.32;;;;;;;18.73;100.00;100844.88;5021217;28;20060;-88
2023/06/05 02:58:56;;;;;;;9.18;5.75;;;;;;;18.80;100.00;100831.34;5037896;28;20053;-89
2023/06/05 03:01:30;;;;;;;7.22;5.47;;;;;;;18.86;100.00;100837.53;5005226;28;20075;-88
2023/06/05 03:03:59;;;;;;;7.95;5.40;;;;;;;18.88;100.00;100828.88;5021712;28;20056;-88
2023/06/05 03:06:33;;;;;;;11.02;5.68;;;;;;;18.84;100.00;100828.75;5037258;28;20048;-88
2023/06/05 03:09:04;;;;;;;7.63;5.57;;;;;;;18.69;100.00;100830.09;5021640;28;20048;-88
2023/06/05 03:11:32;;;;;;;6.45;5.25;;;;;;;18.63;100.00;100825.84;5020963;28;20053;-88
2023/06/05 03:14:00;;;;;;;8.10;5.18;;;;;;;18.47;100.00;100829.13;5018811;28;20060;-88
2023/06/05 03:16:32;;;;;;;5.10;4.05;;;;;;;18.29;100.00;100824.75;5005052;28;20605;-88
2023/06/05 03:19:02;;;;;;;6.50;4.28;;;;;;;18.27;100.00;100825.06;5020303;28;20049;-88
2023/06/05 03:21:30;;;;;;;4.30;3.85;;;;;;;18.19;100.00;100826.69;5008971;28;20398;-88
2023/06/05 03:23:59;;;;;;;4.60;4.00;;;;;;;18.38;100.00;100822.81;5037034;28;20045;-88
2023/06/05 03:26:28;;;;;;;4.72;3.95;;;;;;;18.44;100.00;100823.44;5037159;28;20585;-88
2023/06/05 03:28:56;;;;;;;4.30;3.90;;;;;;;18.24;100.00;100817.44;5037290;28;20045;-88
2023/06/05 03:31:24;;;;;;;4.50;3.60;;;;;;;18.24;100.00;100826.53;5022167;28;20044;-89
2023/06/05 03:33:53;;;;;;;5.35;4.40;;;;;;;18.40;100.00;100831.59;5009650;28;20134;-87
2023/06/05 03:36:22;;;;;;;4.55;3.80;;;;;;;18.31;100.00;100823.28;5020745;28;20041;-89
2023/06/05 03:38:51;;;;;;;5.72;4.07;;;;;;;18.32;100.00;100824.09;5020886;28;20052;-89
2023/06/05 03:41:20;;;;;;;4.90;4.13;;;;;;;18.33;100.00;100825.72;5050432;28;20052;-88
2023/06/05 03:43:49;;;;;;;5.00;3.65;;;;;;;18.36;100.00;100819.53;5004287;28;20049;-89
2023/06/05 03:46:18;;;;;;;4.88;4.00;;;;;;;18.23;100.00;100815.81;5035714;28;20048;-89
2023/06/05 03:48:49;;;;;;;5.60;4.40;;;;;;;18.28;100.00;100818.38;5020304;28;20143;-88
2023/06/05 03:51:19;;;;;;;6.53;3.78;;;;;;;18.32;100.00;100824.91;5042055;28;20067;-89
2023/06/05 03:53:55;;;;;;;4.00;3.60;;;;;;;18.48;100.00;100822.44;5040190;28;20063;-90
2023/06/05 03:56:28;;;;;;;4.85;3.92;;;;;;;18.70;100.00;100817.84;5040491;28;20499;-89
2023/06/05 03:59:08;;;;;;;4.30;3.70;;;;;;;18.54;100.00;100820.31;5025060;28;20415;-89
2023/06/05 04:01:39;;;;;;;4.00;3.47;;;;;;;18.44;100.00;100821.47;5036530;28;20078;-89
2023/06/05 04:04:08;;;;;;;4.10;3.15;;;;;;;18.32;100.00;100824.09;5003280;28;20053;-89
2023/06/05 04:06:36;;;;;;;4.38;3.67;;;;;;;18.11;100.00;100821.97;5036585;28;20379;-89
2023/06/05 04:09:10;;;;;;;5.20;3.33;;;;;;;18.33;100.00;100820.19;5041256;28;20037;-90
2023/06/05 04:11:42;;;;;;;5.20;3.50;;;;;;;18.37;100.00;100826.69;5057892;28;20498;-94
2023/06/05 04:14:11;;;;;;;3.40;3.10;;;;;;;18.20;100.00;100833.88;5039201;28;20042;-89
2023/06/05 04:16:44;;;;;;;3.58;3.28;;;;;;;18.18;100.00;100825.06;5038138;28;20053;-89
2023/06/05 04:19:18;;;;;;;3.75;3.10;;;;;;;18.02;100.00;100826.69;5031615;28;20164;-87
2023/06/05 04:21:49;;;;;;;3.95;3.55;;;;;;;18.23;100.00;100822.13;5037329;28;20044;-89
2023/06/05 04:24:17;;;;;;;3.47;3.15;;;;;;;18.31;100.00;100825.22;5019961;28;20056;-89
2023/06/05 04:26:45;;;;;;;4.15;3.03;;;;;;;18.10;100.00;100823.13;5054169;28;20061;-87
2023/06/05 04:29:15;;;;;;;4.05;3.08;;;;;;;18.22;100.00;100823.28;5048317;28;20063;-87
2023/06/05 04:31:47;;;;;;;4.63;3.20;;;;;;;18.41;100.00;100827.66;5073151;28;20048;-88
2023/06/05 04:34:18;;;;;;;3.28;2.97;;;;;;;18.47;100.00;100829.13;5043416;28;20037;-87
2023/06/05 04:36:49;;;;;;;3.58;3.28;;;;;;;18.46;100.00;100835.81;5038630;28;20051;-88
2023/06/05 04:39:19;;;;;;;4.15;3.08;;;;;;;18.45;100.00;100823.09;5042907;28;20067;-87
2023/06/05 04:41:48;;;;;;;3.58;3.28;;;;;;;18.43;100.00;100830.13;5053876;28;20170;-88
2023/06/05 04:44:37;;;;;;;4.25;3.10;;;;;;;18.45;100.00;100834.19;5053131;28;20048;-88
2023/06/05 04:47:07;;;;;;;3.05;2.75;;;;;;;18.40;100.00;100832.41;5051945;28;20503;-88
2023/06/05 04:49:36;;;;;;;2.92;2.63;;;;;;;18.40;100.00;100826.88;5034637;28;20060;-87
2023/06/05 04:52:04;;;;;;;2.63;2.42;;;;;;;18.47;100.00;100828.34;5035602;28;20478;-87
2023/06/05 04:54:33;;;;;;;2.70;2.50;;;;;;;18.37;100.00;100821.16;5034287;28;20052;-86
2023/06/05 04:57:01;;;;;;;5.50;2.35;;;;;;;18.22;100.00;100823.28;5018814;28;20056;-82
2023/06/05 04:59:32;;;;;;;1.95;1.77;;;;;;;18.38;100.00;100822.81;5006528;28;20072;-85
2023/06/05 05:02:01;;;;;;;3.35;2.17;;;;;;;18.33;100.00;100821.00;5002734;28;20045;-89
2023/06/05 05:04:30;;;;;;;2.80;2.28;;;;;;;18.40;100.00;100820.50;5019301;28;20056;-85
2023/06/05 05:07:01;;;;;;;3.22;2.40;;;;;;;18.47;100.00;100820.03;5002089;28;20057;-83
2023/06/05 05:09:32;;;;;;;2.42;2.22;;;;;;;18.29;100.00;100819.22;5002470;28;20049;-88
2023/06/05 05:12:03;;;;;;;3.28;2.67;;;;;;;18.35;100.00;100826.22;5008536;28;20037;-88
2023/06/05 05:14:30;;;;;;;3.53;2.30;;;;;;;18.22;100.00;100823.28;5015373;28;20045;-89
2023/06/05 05:17:01;;;;;;;2.17;1.90;;;;;;;18.07;100.00;100829.31;5002452;28;20044;-86
2023/06/05 05:19:30;;;;;;;2.30;2.10;;;;;;;18.15;100.00;100828.50;5019964;28;20049;-88
2023/06/05 05:22:01;;;;;;;2.80;2.22;;;;;;;18.41;100.00;100827.66;5029170;28;20063;-78
2023/06/05 05:24:31;;;;;;;2.00;1.67;;;;;;;18.97;100.00;100834.41;5001079;28;20052;-78
2023/06/05 05:27:00;;;;;;;4.63;2.20;;;;;;;19.02;100.00;100823.13;5002378;28;20392;-78
2023/06/05 05:29:29;;;;;;;2.13;2.00;;;;;;;19.31;100.00;100830.69;5035475;28;20044;-78
2023/06/05 05:31:57;;;;;;;6.18;1.90;;;;;;;19.06;100.00;100836.03;5022138;28;20422;-78
2023/06/05 05:34:25;;;;;;;2.85;2.20;;;;;;;18.98;100.00;100831.31;5018083;28;20409;-78
2023/06/05 05:36:53;;;;;;;2.95;1.83;;;;;;;19.12;100.00;100835.84;5002649;28;20525;-78
2023/06/05 05:39:21;;;;;;;2.55;2.33;;;;;;;19.14;100.00;100836.31;5018406;28;20095;-78
2023/06/05 05:41:50;;;;;;;5.00;2.22;;;;;;;19.15;100.00;100833.22;5012426;28;20045;-78
2023/06/05 11:08:23;;;;;;;3.78;2.13;;;;;;;21.74;95.65;100897.09;5010150;28;20412;-86
2023/06/05 11:11:09;;;;;;;2.67;2.10;;;;;;;21.65;94.12;100890.78;4993994;28;20042;-87
2023/06/05 11:14:19;;;;;;;3.33;2.35;;;;;;;21.86;94.59;100892.66;4971035;23;20051;-86
2023/06/05 11:16:48;;;;;;;2.80;2.10;;;;;;;21.86;94.71;100896.25;4977974;28;20054;-86
2023/06/05 11:19:20;;;;;;;2.30;2.00;;;;;;;21.82;95.35;100889.78;4994670;28;20034;-86
2023/06/05 11:22:05;;;;;;;3.13;2.38;;;;;;;21.88;95.58;100887.56;4978304;28;20046;-86
2023/06/05 11:24:35;;;;;;;2.83;2.28;;;;;;;22.05;94.41;100880.09;4995373;28;20058;-86
2023/06/05 11:27:05;;;;;;;4.40;2.35;;;;;;;21.72;94.31;100877.13;4995373;28;20042;-86
2023/06/05 11:29:33;;;;;;;3.72;2.80;;;;;;;21.94;93.34;100886.16;4995742;28;20477;-86
2023/06/05 11:32:11;;;;;;;2.38;2.17;;;;;;;21.94;93.93;100886.16;4993046;28;20046;-86
2023/06/05 11:34:40;;;;;;;4.13;2.53;;;;;;;21.91;96.28;100884.06;4945899;28;20413;-86
2023/06/05 11:37:16;;;;;;;2.63;2.40;;;;;;;21.95;92.66;100886.97;4975288;28;20524;-86
2023/06/05 11:39:45;;;;;;;3.75;3.10;;;;;;;21.94;92.66;100885.34;4958717;28;20050;-87
2023/06/05 11:42:22;;;;;;;3.75;2.50;;;;;;;21.82;92.66;100883.38;4976107;28;20474;-86
2023/06/05 11:44:51;;;;;;;3.90;2.53;;;;;;;21.68;95.43;100878.13;4974312;28;20051;-86
2023/06/05 11:47:24;;;;;;;3.90;2.85;;;;;;;21.74;95.52;100872.03;4977260;28;20054;-86
2023/06/05 11:49:52;;;;;;;3.35;2.92;;;;;;;21.81;92.88;100877.00;4976312;28;20043;-86
2023/06/05 11:52:22;;;;;;;4.97;2.92;;;;;;;21.74;94.57;100874.81;4975899;28;20050;-86
2023/06/05 11:55:05;;;;;;;2.65;2.42;;;;;;;21.89;94.75;100866.88;4943265;28;20492;-86
2023/06/05 11:57:44;;;;;;;2.22;1.95;;;;;;;22.06;93.34;100859.41;4959253;28;20062;-86
2023/06/05 12:00:26;;;;;;;3.50;3.08;;;;;;;21.98;89.58;100864.78;4959758;28;20057;-86
2023/06/05 12:02:54;;;;;;;3.58;2.28;;;;;;;22.24;89.95;100855.19;4975875;28;20471;-86
2023/06/05 12:05:28;;;;;;;2.92;2.10;;;;;;;22.27;90.89;100859.25;4978524;28;20494;-86
2023/06/05 12:08:27;;;;;;;3.58;2.42;;;;;;;22.21;91.52;100861.47;4995984;28;20417;-86
2023/06/05 12:11:00;;;;;;;2.72;2.42;;;;;;;22.24;93.36;100849.59;4997511;28;20397;-86
2023/06/05 12:13:48;;;;;;;3.58;2.58;;;;;;;22.36;95.34;100856.31;4993529;28;20421;-86
2023/06/05 12:16:17;;;;;;;4.13;2.92;;;;;;;22.47;94.32;100851.03;4978734;28;20070;-86
2023/06/05 12:18:49;;;;;;;2.72;2.30;;;;;;;22.49;92.67;100852.28;4995901;28;20042;-86
2023/06/05 12:21:33;;;;;;;3.88;2.33;;;;;;;22.52;90.73;100836.88;4979786;28;20046;-86
2023/06/05 12:24:04;;;;;;;4.40;2.50;;;;;;;22.37;88.63;100843.97;4995405;28;20046;-87
2023/06/05 12:26:55;;;;;;;2.65;2.10;;;;;;;22.27;88.78;100848.91;4994480;28;20043;-87
2023/06/05 12:29:28;;;;;;;2.80;2.40;;;;;;;22.45;89.87;100837.47;4976697;28;20065;-87
2023/06/05 12:32:01;;;;;;;3.20;2.47;;;;;;;22.28;87.29;100839.38;4977499;28;20058;-87
2023/06/05 12:34:44;;;;;;;2.78;2.28;;;;;;;22.11;86.60;100834.09;4994763;28;20057;-88
2023/06/05 12:37:38;;;;;;;3.50;2.40;;;;;;;22.16;88.49;100822.72;4977070;28;20050;-88
2023/06/05 12:40:10;;;;;;;2.75;2.30;;;;;;;22.16;89.10;100825.50;4992878;28;20051;-85
2023/06/05 12:42:43;;;;;;;3.10;2.30;;;;;;;22.10;92.34;100824.13;4977202;28;20046;-86
2023/06/05 12:45:12;;;;;;;4.05;2.30;;;;;;;22.12;91.91;100819.00;4994539;28;20420;-85
2023/06/05 12:47:42;;;;;;;2.38;2.17;;;;;;;22.12;93.85;100811.47;4993696;28;20042;-84
2023/06/05 12:50:11;;;;;;;3.55;2.78;;;;;;;22.12;93.80;100813.44;4992025;28;20488;-86
2023/06/05 12:52:41;;;;;;;3.20;2.30;;;;;;;22.13;91.41;100804.72;4978723;28;20046;-86
2023/06/05 12:55:10;;;;;;;3.08;2.40;;;;;;;22.06;92.69;100812.06;4981463;28;20053;-86
2023/06/05 12:57:39;;;;;;;5.07;2.45;;;;;;;22.13;92.86;100809.47;4990917;28;20076;-87
2023/06/05 13:00:15;;;;;;;3.13;2.47;;;;;;;22.08;90.77;100807.75;4997729;28;20034;-86
2023/06/05 13:02:47;;;;;;;3.72;2.40;;;;;;;22.17;92.48;100801.22;4976718;28;20038;-88
2023/06/05 13:05:16;;;;;;;4.03;2.72;;;;;;;22.15;93.28;100804.38;4945741;28;20046;-89
2023/06/05 13:07:44;;;;;;;3.67;2.42;;;;;;;22.09;95.55;100806.59;4976185;28;20057;-88
2023/06/05 13:10:13;;;;;;;3.22;2.45;;;;;;;21.98;95.83;100806.28;4974944;28;20405;-88
2023/06/05 13:12:42;;;;;;;3.42;2.70;;;;;;;22.05;95.87;100804.88;4976260;28;20046;-88
2023/06/05 13:15:10;;;;;;;2.70;2.17;;;;;;;22.14;94.18;100808.31;4975450;28;20054;-89
2023/06/05 13:17:49;;;;;;;2.42;2.20;;;;;;;22.07;92.27;100795.00;4965358;28;20501;-90
2023/06/05 13:20:19;;;;;;;3.03;2.40;;;;;;;22.22;92.23;100801.78;4941621;28;20046;-89
2023/06/05 13:22:47;;;;;;;2.80;2.28;;;;;;;22.26;92.69;100799.09;4937567;28;20516;-89
2023/06/05 13:25:15;;;;;;;2.22;2.03;;;;;;;22.27;95.37;100800.72;4963253;28;20046;-90
2023/06/05 13:27:43;;;;;;;2.83;2.45;;;;;;;22.18;93.89;100784.13;4965659;28;20077;-90
2023/06/05 13:30:14;;;;;;;2.70;2.45;;;;;;;22.11;96.08;100779.19;4950494;28;20413;-89
2023/06/05 13:32:45;;;;;;;3.80;2.67;;;;;;;22.19;94.24;100779.38;4960101;28;20050;-89
2023/06/05 13:35:13;;;;;;;2.38;2.17;;;;;;;22.24;91.35;100784.72;4967398;28;20061;-89
2023/06/05 13:37:41;;;;;;;2.28;2.08;;;;;;;22.17;91.05;100779.72;4989038;28;20054;-89
2023/06/05 13:40:14;;;;;;;3.10;2.17;;;;;;;22.21;92.51;100786.22;4960219;28;20053;-90
2023/06/05 13:42:43;;;;;;;2.15;1.80;;;;;;;22.27;93.14;100783.97;4961466;28;20042;-89
2023/06/05 13:45:13;;;;;;;3.38;2.30;;;;;;;22.26;91.48;100785.97;4976426;28;20038;-89
2023/06/05 13:47:41;;;;;;;3.40;2.47;;;;;;;22.22;92.02;100782.28;4978539;28;20401;-88
2023/06/05 13:50:11;;;;;;;2.80;2.10;;;;;;;22.22;93.62;100779.47;4958228;28;20055;-89
2023/06/05 13:52:40;;;;;;;2.28;2.08;;;;;;;22.26;93.13;100777.63;4955788;28;20050;-88
2023/06/05 13:55:09;;;;;;;2.90;1.92;;;;;;;22.22;94.58;100776.69;4959349;28;20050;-88
2023/06/05 13:57:37;;;;;;;2.78;2.28;;;;;;;22.24;95.65;100768.00;4991409;28;20544;-88
2023/06/05 14:00:05;;;;;;;3.13;2.40;;;;;;;22.37;95.79;100774.28;4938498;28;20051;-88
2023/06/05 14:02:34;;;;;;;2.42;2.22;;;;;;;22.27;93.33;100772.84;4991863;28;20061;-89
2023/06/05 14:05:02;;;;;;;3.38;2.53;;;;;;;22.18;93.22;100764.63;4975335;28;20405;-89
2023/06/05 14:07:30;;;;;;;2.20;2.00;;;;;;;22.24;94.08;100765.19;4974235;28;20062;-88
2023/06/05 14:10:17;;;;;;;2.33;2.13;;;;;;;22.26;91.99;100769.25;4975660;28;20054;-89
2023/06/05 14:12:45;;;;;;;1.95;1.80;;;;;;;22.14;90.70;100756.16;4958819;28;20058;-89
2023/06/05 14:15:13;;;;;;;2.40;2.13;;;;;;;22.24;89.95;100768.00;4963228;28;20117;-89
2023/06/05 14:17:44;;;;;;;2.40;2.20;;;;;;;22.27;88.46;100765.28;4959526;28;20054;-89
2023/06/05 14:20:13;;;;;;;3.22;2.13;;;;;;;22.25;87.36;100759.25;4974152;28;20409;-89
2023/06/05 14:22:42;;;;;;;2.20;2.05;;;;;;;22.24;90.01;100757.63;4967156;28;20046;-90
2023/06/05 14:25:10;;;;;;;2.55;2.35;;;;;;;22.10;90.65;100755.25;4959030;28;20049;-90
2023/06/05 14:27:38;;;;;;;2.70;2.10;;;;;;;22.19;90.55;100755.09;4943551;28;20404;-90
2023/06/05 14:30:08;;;;;;;2.28;2.08;;;;;;;22.27;90.38;100758.91;4959705;28;20053;-89
2023/06/05 14:32:36;;;;;;;2.45;1.83;;;;;;;22.35;88.88;100755.16;4990932;28;20046;-89
2023/06/05 14:35:06;;;;;;;2.22;2.03;;;;;;;22.51;87.54;100755.19;4957081;28;20054;-90
2023/06/05 14:37:35;;;;;;;2.58;2.00;;;;;;;22.53;88.84;100764.00;4942729;28;20054;-90
2023/06/05 14:40:05;;;;;;;2.15;1.88;;;;;;;22.57;88.48;100761.31;4959382;28;20255;-89
2023/06/05 14:42:33;;;;;;;2.10;1.80;;;;;;;22.52;90.04;100756.81;4959495;28;20046;-90
2023/06/05 14:45:02;;;;;;;2.10;1.90;;;;;;;22.42;89.55;100748.94;4946797;28;20403;-90
2023/06/05 14:47:31;;;;;;;2.25;2.05;;;;;;;22.61;89.15;100747.47;4975020;28;20053;-90
2023/06/05 14:49:59;;;;;;;3.40;2.08;;;;;;;22.67;89.38;100744.06;4961733;28;20059;-87
2023/06/05 14:52:29;;;;;;;3.20;2.10;;;;;;;22.82;86.19;100750.81;4996154;28;20409;-87
2023/06/05 14:54:57;;;;;;;2.28;1.70;;;;;;;22.99;86.35;100754.41;4962444;28;20493;-88
2023/06/05 14:57:33;;;;;;;3.05;2.10;;;;;;;22.98;87.21;100738.84;4977642;28;20058;-88
2023/06/05 15:00:06;;;;;;;2.17;1.88;;;;;;;23.04;87.58;100739.34;4995167;28;20049;-88
2023/06/05 15:02:41;;;;;;;1.90;1.80;;;;;;;23.03;86.52;100746.13;4978780;28;20389;-88
2023/06/05 15:05:10;;;;;;;2.08;1.88;;;;;;;23.02;84.37;100739.72;4995649;28;20046;-88
2023/06/05 15:07:40;;;;;;;3.10;2.00;;;;;;;22.99;83.71;100737.66;4989805;28;20508;-87
2023/06/05 15:10:12;;;;;;;2.88;1.75;;;;;;;23.03;86.44;100735.75;4958880;28;20056;-88
2023/06/05 15:12:41;;;;;;;3.58;1.70;;;;;;;23.09;85.07;100736.28;4994023;28;20050;-87
2023/06/05 15:15:10;;;;;;;3.70;2.00;;;;;;;23.13;85.39;100739.16;4982137;28;20528;-88
2023/06/05 15:17:48;;;;;;;2.17;1.90;;;;;;;23.04;85.91;100737.41;4963714;28;20401;-88
2023/06/05 15:20:16;;;;;;;2.80;1.90;;;;;;;23.07;86.29;100739.44;4990064;28;20050;-87
2023/06/05 15:22:45;;;;;;;3.00;2.15;;;;;;;23.18;84.17;100738.91;5033629;28;20054;-87
2023/06/05 15:25:15;;;;;;;3.22;2.10;;;;;;;23.26;83.58;100735.09;5005969;28;20050;-86
2023/06/05 15:27:43;;;;;;;2.70;2.13;;;;;;;23.20;80.76;100736.53;4957690;28;20058;-87
2023/06/05 15:30:11;;;;;;;2.00;1.90;;;;;;;23.18;81.92;100722.16;4989643;28;20038;-87
2023/06/05 15:32:39;;;;;;;3.25;1.98;;;;;;;22.88;83.87;100731.00;4992051;28;20046;-86
2023/06/05 15:35:08;;;;;;;3.58;2.08;;;;;;;23.12;84.56;100734.75;4994915;28;20495;-86
2023/06/05 15:37:37;;;;;;;2.17;1.98;;;;;;;23.11;84.61;100733.16;4976442;28;20401;-86
2023/06/05 15:40:06;;;;;;;2.42;2.22;;;;;;;23.17;85.66;100737.28;4981053;28;20046;-86
2023/06/05 15:42:35;;;;;;;2.08;1.83;;;;;;;23.13;85.61;100737.19;4995323;28;20054;-87
2023/06/05 15:45:12;;;;;;;3.63;2.03;;;;;;;23.16;87.04;100730.88;4993917;28;20141;-86
2023/06/05 15:47:41;;;;;;;3.40;1.80;;;;;;;23.16;86.19;100732.88;4994941;28;20756;-87
2023/06/05 15:50:10;;;;;;;2.97;2.22;;;;;;;23.12;88.12;100729.97;4995256;28;20058;-86
2023/06/05 15:52:39;;;;;;;2.40;2.20;;;;;;;23.22;86.56;100723.84;4995029;28;20047;-86
2023/06/05 15:55:09;;;;;;;2.10;2.00;;;;;;;23.18;85.56;100725.72;4993971;28;20046;-86
2023/06/05 15:57:37;;;;;;;2.38;2.17;;;;;;;23.25;83.74;100730.69;4994423;28;20042;-86
2023/06/05 16:00:05;;;;;;;2.72;2.08;;;;;;;23.29;83.07;100737.16;4994053;28;20047;-86
2023/06/05 16:02:38;;;;;;;3.10;2.20;;;;;;;23.26;82.34;100729.50;4989610;28;20381;-86
2023/06/05 16:05:06;;;;;;;4.30;2.00;;;;;;;23.23;80.76;100724.66;4993140;28;20603;-87
2023/06/05 16:07:36;;;;;;;2.45;2.25;;;;;;;23.16;85.64;100730.88;4974187;28;20046;-87
2023/06/05 16:10:05;;;;;;;2.40;2.20;;;;;;;23.20;82.70;100731.78;4979486;28;20085;-87
2023/06/05 16:12:33;;;;;;;2.92;2.20;;;;;;;23.24;84.44;100717.91;4970705;28;20482;-88
2023/06/05 16:15:01;;;;;;;2.45;1.80;;;;;;;23.29;83.28;100727.97;4988908;28;20042;-88
2023/06/05 16:17:31;;;;;;;3.20;2.28;;;;;;;23.26;82.87;100714.75;4964150;28;20046;-90
2023/06/05 16:19:59;;;;;;;3.15;2.45;;;;;;;23.23;80.53;100716.28;4954745;28;20413;-89
2023/06/05 16:22:27;;;;;;;2.15;1.88;;;;;;;23.33;81.70;100717.72;4962877;28;20401;-89
2023/06/05 16:24:55;;;;;;;1.60;1.48;;;;;;;23.11;79.73;100716.41;4987786;28;20050;-89
2023/06/05 16:27:24;;;;;;;2.75;1.90;;;;;;;23.12;80.40;100707.66;4992084;28;20046;-89
2023/06/05 16:29:55;;;;;;;3.25;2.00;;;;;;;23.08;81.07;100721.53;4994644;28;20046;-90
2023/06/05 16:32:23;;;;;;;2.65;2.25;;;;;;;23.14;82.29;100710.09;4976375;28;20508;-90
2023/06/05 16:34:53;;;;;;;3.03;2.13;;;;;;;23.13;82.39;100703.72;4954970;28;20047;-90
2023/06/05 16:37:21;;;;;;;2.47;2.22;;;;;;;23.20;82.63;100703.88;4961633;28;20050;-90
2023/06/05 16:39:50;;;;;;;2.70;1.83;;;;;;;23.29;81.82;100706.44;4960779;28;20045;-90
2023/06/05 16:42:20;;;;;;;2.55;2.05;;;;;;;23.12;80.63;100716.03;4972535;28;20065;-90
2023/06/05 16:44:51;;;;;;;3.22;2.22;;;;;;;23.00;81.39;100705.78;4959795;28;20042;-90
2023/06/05 16:47:26;;;;;;;2.53;2.25;;;;;;;23.00;82.99;100710.56;4956942;28;20517;-90
2023/06/05 16:49:55;;;;;;;3.17;2.58;;;;;;;22.85;83.23;100703.81;4975061;28;20042;-90
2023/06/05 16:52:27;;;;;;;3.25;2.50;;;;;;;22.87;83.65;100707.06;4958657;28;20066;-89
2023/06/05 16:55:02;;;;;;;3.95;2.60;;;;;;;22.95;82.63;100709.69;4992552;28;20050;-90
2023/06/05 16:57:35;;;;;;;2.72;2.40;;;;;;;22.90;84.71;100706.34;4959964;28;20050;-89
2023/06/05 17:00:08;;;;;;;2.75;2.30;;;;;;;22.92;82.46;100715.19;4954698;28;20065;-90
2023/06/05 17:02:37;;;;;;;3.17;2.20;;;;;;;22.98;82.92;100712.91;4990363;28;20050;-90